createdAt,value
2019-02-06T00:00:50.138Z,995.659
2019-02-06T00:02:50.350Z,995.645
2019-02-06T00:04:50.411Z,995.636
2019-02-06T00:06:50.271Z,995.629
2019-02-06T00:08:50.107Z,995.630
2019-02-06T00:10:49.970Z,995.648
2019-02-06T00:12:49.788Z,995.663
2019-02-06T00:14:50.670Z,995.662
2019-02-06T00:16:51.453Z,995.665
2019-02-06T00:18:50.628Z,995.646
2019-02-06T00:20:50.547Z,995.653
2019-02-06T00:22:50.413Z,995.646
2019-02-06T00:24:50.209Z,995.649
2019-02-06T00:26:50.142Z,995.670
2019-02-06T00:28:49.938Z,995.682
2019-02-06T00:30:49.700Z,995.682
2019-02-06T00:32:49.637Z,995.686
2019-02-06T00:34:50.584Z,995.680
2019-02-06T00:36:50.506Z,995.660
2019-02-06T00:38:50.303Z,995.655
2019-02-06T00:40:50.137Z,995.633
2019-02-06T00:42:49.982Z,995.628
2019-02-06T00:44:49.746Z,995.645
2019-02-06T00:46:50.599Z,995.646
2019-02-06T00:48:50.413Z,995.620
2019-02-06T00:50:50.280Z,995.618
2019-02-06T00:52:50.043Z,995.611
2019-02-06T00:54:49.916Z,995.630
2019-02-06T00:56:49.838Z,995.648
2019-02-06T00:58:50.602Z,995.674
2019-02-06T01:00:50.445Z,995.684
2019-02-06T01:02:50.703Z,995.684
2019-02-06T01:04:50.131Z,995.690
2019-02-06T01:06:50.163Z,995.670
2019-02-06T01:08:49.947Z,995.663
2019-02-06T01:10:50.403Z,995.655
2019-02-06T01:12:50.554Z,995.658
2019-02-06T01:14:50.396Z,995.659
2019-02-06T01:16:50.385Z,995.664
2019-02-06T01:18:50.253Z,995.662
2019-02-06T01:20:50.230Z,995.667
2019-02-06T01:22:50.027Z,995.667
2019-02-06T01:24:49.823Z,995.663
2019-02-06T01:26:49.691Z,995.676
2019-02-06T01:28:50.538Z,995.666
2019-02-06T01:30:50.338Z,995.684
2019-02-06T01:32:50.859Z,995.697
2019-02-06T01:34:50.012Z,995.726
2019-02-06T01:36:49.903Z,995.736
2019-02-06T01:38:49.736Z,995.741
2019-02-06T01:40:51.104Z,995.737
2019-02-06T01:42:50.255Z,995.719
2019-02-06T01:44:50.035Z,995.689
2019-02-06T01:46:49.930Z,995.672
2019-02-06T01:48:49.707Z,995.668
2019-02-06T01:50:50.514Z,995.665
2019-02-06T01:52:50.503Z,995.676
2019-02-06T01:54:50.450Z,995.644
2019-02-06T01:56:50.329Z,995.613
2019-02-06T01:58:50.138Z,995.606
2019-02-06T02:00:49.953Z,995.590
2019-02-06T02:02:49.954Z,995.590
2019-02-06T02:04:50.124Z,995.523
2019-02-06T02:06:50.130Z,995.485
2019-02-06T02:08:49.940Z,995.458
2019-02-06T02:10:50.320Z,995.456
2019-02-06T02:12:50.402Z,995.471
2019-02-06T02:14:50.170Z,995.471
2019-02-06T02:16:50.238Z,995.470
2019-02-06T02:18:50.780Z,995.491
2019-02-06T02:20:49.914Z,995.491
2019-02-06T02:22:49.834Z,995.431
2019-02-06T02:24:49.730Z,995.406
2019-02-06T02:26:49.946Z,995.352
2019-02-06T02:28:49.893Z,995.289
2019-02-06T02:30:49.735Z,995.222
2019-02-06T02:32:50.634Z,995.208
2019-02-06T02:34:49.715Z,995.185
2019-02-06T02:36:50.614Z,995.193
2019-02-06T02:38:50.407Z,995.187
2019-02-06T02:40:50.136Z,995.152
2019-02-06T02:42:49.902Z,995.127
2019-02-06T02:44:49.683Z,995.120
2019-02-06T02:46:50.581Z,995.120
2019-02-06T02:48:50.360Z,995.137
2019-02-06T02:50:50.192Z,995.150
2019-02-06T02:52:49.999Z,995.180
2019-02-06T02:54:49.831Z,995.189
2019-02-06T02:56:50.362Z,995.190
2019-02-06T02:58:50.449Z,995.184
2019-02-06T03:00:50.326Z,995.171
2019-02-06T03:02:50.239Z,995.170
2019-02-06T03:04:51.007Z,995.168
2019-02-06T03:06:50.160Z,995.172
2019-02-06T03:08:50.006Z,995.149
2019-02-06T03:10:49.848Z,995.137
2019-02-06T03:12:49.644Z,995.126
2019-02-06T03:14:50.538Z,995.138
2019-02-06T03:16:50.452Z,995.116
2019-02-06T03:18:50.293Z,995.103
2019-02-06T03:20:50.157Z,995.092
2019-02-06T03:22:50.010Z,995.094
2019-02-06T03:24:49.881Z,995.123
2019-02-06T03:26:49.838Z,995.121
2019-02-06T03:28:49.627Z,995.119
2019-02-06T03:30:50.446Z,995.119
2019-02-06T03:32:50.395Z,995.134
2019-02-06T03:34:50.383Z,995.148
2019-02-06T03:36:50.240Z,995.146
2019-02-06T03:38:50.064Z,995.147
2019-02-06T03:40:49.886Z,995.163
2019-02-06T03:42:50.237Z,995.157
2019-02-06T03:44:50.385Z,995.107
2019-02-06T03:46:50.379Z,995.085
2019-02-06T03:48:50.216Z,995.070
2019-02-06T03:50:50.443Z,995.068
2019-02-06T03:52:50.586Z,995.071
2019-02-06T03:54:50.499Z,995.093
2019-02-06T03:56:50.441Z,995.122
2019-02-06T03:58:50.207Z,995.113
2019-02-06T04:00:50.064Z,995.114
2019-02-06T04:02:49.940Z,995.124
2019-02-06T04:04:49.888Z,995.116
2019-02-06T04:07:02.574Z,995.104
2019-02-06T04:08:50.504Z,995.130
2019-02-06T04:10:50.352Z,995.151
2019-02-06T04:12:50.143Z,995.156
2019-02-06T04:14:49.986Z,995.167
2019-02-06T04:16:49.944Z,995.209
2019-02-06T04:18:49.859Z,995.210
2019-02-06T04:20:50.241Z,995.193
2019-02-06T04:22:50.223Z,995.161
2019-02-06T04:24:51.967Z,995.150
2019-02-06T04:26:49.910Z,995.136
2019-02-06T04:28:50.350Z,995.130
2019-02-06T04:30:50.539Z,995.178
2019-02-06T04:32:50.353Z,995.219
2019-02-06T04:34:50.443Z,995.274
2019-02-06T04:36:50.961Z,995.249
2019-02-06T04:38:50.045Z,995.219
2019-02-06T04:40:49.853Z,995.187
2019-02-06T04:42:49.662Z,995.176
2019-02-06T04:44:50.546Z,995.116
2019-02-06T04:46:50.510Z,995.084
2019-02-06T04:48:50.289Z,995.071
2019-02-06T04:50:50.199Z,995.059
2019-02-06T04:52:49.993Z,995.038
2019-02-06T04:54:49.970Z,995.008
2019-02-06T04:56:49.837Z,995.005
2019-02-06T04:58:49.720Z,994.969
2019-02-06T05:00:50.527Z,994.957
2019-02-06T05:02:50.395Z,994.957
2019-02-06T05:04:50.487Z,994.934
2019-02-06T05:06:51.056Z,994.920
2019-02-06T05:08:50.141Z,994.903
2019-02-06T05:10:49.945Z,994.897
2019-02-06T05:12:49.741Z,994.912
2019-02-06T05:14:50.790Z,994.929
2019-02-06T05:16:50.152Z,994.931
2019-02-06T05:18:49.959Z,994.931
2019-02-06T05:20:49.881Z,994.913
2019-02-06T05:22:49.758Z,994.927
2019-02-06T05:24:50.534Z,994.938
2019-02-06T05:26:49.738Z,994.960
2019-02-06T05:28:50.559Z,994.954
2019-02-06T05:30:50.461Z,994.958
2019-02-06T05:32:50.283Z,994.962
2019-02-06T05:34:50.436Z,994.962
2019-02-06T05:36:51.343Z,994.958
2019-02-06T05:38:50.181Z,994.898
2019-02-06T05:40:49.973Z,994.880
2019-02-06T05:42:53.186Z,994.807
2019-02-06T05:44:50.732Z,994.768
2019-02-06T05:46:50.106Z,994.771
2019-02-06T05:48:49.982Z,994.769
2019-02-06T05:50:49.772Z,994.769
2019-02-06T05:52:49.655Z,994.746
2019-02-06T05:54:50.502Z,994.737
2019-02-06T05:56:50.391Z,994.744
2019-02-06T05:58:50.195Z,994.766
2019-02-06T06:00:50.080Z,994.815
2019-02-06T06:02:49.922Z,994.869
2019-02-06T06:04:50.063Z,994.878
2019-02-06T06:06:50.390Z,994.862
2019-02-06T06:08:50.425Z,994.859
2019-02-06T06:10:50.294Z,994.877
2019-02-06T06:12:50.071Z,994.889
2019-02-06T06:14:49.941Z,994.938
2019-02-06T06:16:49.854Z,994.946
2019-02-06T06:18:49.654Z,994.975
2019-02-06T06:20:50.451Z,994.970
2019-02-06T06:22:50.247Z,994.959
2019-02-06T06:24:50.154Z,994.949
2019-02-06T06:26:49.989Z,994.942
2019-02-06T06:28:49.874Z,994.934
2019-02-06T06:30:49.831Z,994.944
2019-02-06T06:32:49.684Z,994.958
2019-02-06T06:34:50.025Z,994.959
2019-02-06T06:36:50.962Z,994.947
2019-02-06T06:38:50.131Z,994.934
2019-02-06T06:40:50.078Z,994.932
2019-02-06T06:42:49.877Z,994.945
2019-02-06T06:44:50.583Z,994.941
2019-02-06T06:46:49.933Z,994.923
2019-02-06T06:48:49.726Z,994.918
2019-02-06T06:50:50.512Z,994.935
2019-02-06T06:52:50.359Z,994.960
2019-02-06T06:54:50.225Z,994.967
2019-02-06T06:56:50.062Z,994.966
2019-02-06T06:58:49.900Z,994.944
2019-02-06T07:00:49.675Z,994.949
2019-02-06T07:02:50.604Z,994.943
2019-02-06T07:04:49.748Z,994.941
2019-02-06T07:06:49.748Z,994.938
2019-02-06T07:08:50.495Z,994.943
2019-02-06T07:10:50.322Z,994.934
2019-02-06T07:12:50.099Z,994.943
2019-02-06T07:14:50.277Z,994.952
2019-02-06T07:16:50.516Z,994.957
2019-02-06T07:18:50.298Z,994.954
2019-02-06T07:20:50.145Z,994.975
2019-02-06T07:22:50.550Z,994.999
2019-02-06T07:24:49.675Z,995.018
2019-02-06T07:26:50.524Z,995.025
2019-02-06T07:28:50.340Z,995.054
2019-02-06T07:30:50.206Z,995.092
2019-02-06T07:32:50.028Z,995.108
2019-02-06T07:34:50.112Z,995.131
2019-02-06T07:36:50.162Z,995.149
2019-02-06T07:38:50.026Z,995.162
2019-02-06T07:40:49.890Z,995.169
2019-02-06T07:42:49.680Z,995.184
2019-02-06T07:44:50.645Z,995.178
2019-02-06T07:46:50.498Z,995.166
2019-02-06T07:48:50.275Z,995.157
2019-02-06T07:50:50.063Z,995.165
2019-02-06T07:52:50.488Z,995.143
2019-02-06T07:54:50.311Z,995.148
2019-02-06T07:56:50.195Z,995.141
2019-02-06T07:58:51.126Z,995.127
2019-02-06T08:00:50.473Z,995.114
2019-02-06T08:02:50.550Z,995.140
2019-02-06T08:04:50.600Z,995.147
2019-02-06T08:06:50.450Z,995.132
2019-02-06T08:08:50.388Z,995.112
2019-02-06T08:10:50.159Z,995.084
2019-02-06T08:12:50.016Z,995.079
2019-02-06T08:14:49.874Z,995.079
2019-02-06T08:16:49.917Z,995.073
2019-02-06T08:18:49.748Z,995.092
2019-02-06T08:20:50.567Z,995.092
2019-02-06T08:22:50.390Z,995.125
2019-02-06T08:24:50.232Z,995.120
2019-02-06T08:26:50.198Z,995.109
2019-02-06T08:28:50.083Z,995.078
2019-02-06T08:30:49.948Z,995.086
2019-02-06T08:32:49.769Z,995.107
2019-02-06T08:34:49.841Z,995.110
2019-02-06T08:36:49.781Z,995.117
2019-02-06T08:38:50.989Z,995.127
2019-02-06T08:40:50.037Z,995.106
2019-02-06T08:42:49.854Z,995.088
2019-02-06T08:44:49.707Z,995.059
2019-02-06T08:46:50.272Z,995.012
2019-02-06T08:48:50.389Z,995.001
2019-02-06T08:50:50.186Z,994.973
2019-02-06T08:52:50.001Z,994.972
2019-02-06T08:54:49.890Z,994.961
2019-02-06T08:56:49.736Z,994.949
2019-02-06T08:58:50.456Z,994.955
2019-02-06T09:00:50.429Z,994.988
2019-02-06T09:02:50.276Z,995.042
2019-02-06T09:04:56.345Z,995.077
2019-02-06T09:06:50.146Z,995.088
2019-02-06T09:09:00.324Z,995.100
2019-02-06T09:10:50.179Z,995.125
2019-02-06T09:12:49.941Z,995.157
2019-02-06T09:14:49.808Z,995.133
2019-02-06T09:16:50.338Z,995.134
2019-02-06T09:18:50.269Z,995.095
2019-02-06T09:20:53.259Z,995.086
2019-02-06T09:22:50.031Z,995.104
2019-02-06T09:24:50.323Z,995.128
2019-02-06T09:26:50.469Z,995.140
2019-02-06T09:28:50.256Z,995.188
2019-02-06T09:30:50.111Z,995.200
2019-02-06T09:32:49.898Z,995.194
2019-02-06T09:34:50.142Z,995.160
2019-02-06T09:36:49.948Z,995.128
2019-02-06T09:38:49.920Z,995.117
2019-02-06T09:40:50.098Z,995.124
2019-02-06T09:42:49.825Z,995.116
2019-02-06T09:44:50.585Z,995.109
2019-02-06T09:46:50.506Z,995.106
2019-02-06T09:48:50.254Z,995.110
2019-02-06T09:50:50.016Z,995.115
2019-02-06T09:52:49.808Z,995.113
2019-02-06T09:54:51.191Z,995.102
2019-02-06T09:56:51.007Z,995.102
2019-02-06T09:58:49.795Z,995.079
2019-02-06T10:00:50.591Z,995.126
2019-02-06T10:02:51.036Z,995.140
2019-02-06T10:04:50.542Z,995.144
2019-02-06T10:06:50.429Z,995.152
2019-02-06T10:08:50.186Z,995.146
2019-02-06T10:10:49.995Z,995.143
2019-02-06T10:12:49.778Z,995.121
2019-02-06T10:14:50.565Z,995.099
2019-02-06T10:16:50.528Z,995.092
2019-02-06T10:18:50.328Z,995.089
2019-02-06T10:20:50.102Z,995.092
2019-02-06T10:22:49.882Z,995.060
2019-02-06T10:24:49.647Z,995.058
2019-02-06T10:26:50.494Z,995.034
2019-02-06T10:28:50.301Z,994.995
2019-02-06T10:30:50.262Z,994.978
2019-02-06T10:32:50.727Z,994.979
2019-02-06T10:34:49.960Z,994.982
2019-02-06T10:36:50.007Z,994.955
2019-02-06T10:38:50.160Z,994.940
2019-02-06T10:40:50.819Z,994.955
2019-02-06T10:42:49.849Z,994.923
2019-02-06T10:44:49.813Z,994.916
2019-02-06T10:46:49.866Z,994.910
2019-02-06T10:48:49.844Z,994.891
2019-02-06T10:50:49.867Z,994.854
2019-02-06T10:52:49.885Z,994.808
2019-02-06T10:54:49.864Z,994.777
2019-02-06T10:56:49.938Z,994.725
2019-02-06T10:58:49.907Z,994.708
2019-02-06T11:00:49.990Z,994.702
2019-02-06T11:02:49.985Z,994.702
2019-02-06T11:04:50.403Z,994.588
2019-02-06T11:06:50.503Z,994.529
2019-02-06T11:08:50.481Z,994.476
2019-02-06T11:10:50.341Z,994.426
2019-02-06T11:12:50.215Z,994.405
2019-02-06T11:14:50.386Z,994.361
2019-02-06T11:16:50.596Z,994.341
2019-02-06T11:18:50.373Z,994.270
2019-02-06T11:20:49.870Z,994.245
2019-02-06T11:22:50.067Z,994.232
2019-02-06T11:24:50.338Z,994.196
2019-02-06T11:26:50.566Z,994.169
2019-02-06T11:28:50.420Z,994.143
2019-02-06T11:30:50.663Z,994.093
2019-02-06T11:32:49.809Z,994.038
2019-02-06T11:34:50.377Z,993.946
2019-02-06T11:36:50.509Z,993.898
2019-02-06T11:38:49.652Z,993.868
2019-02-06T11:40:49.816Z,993.836
2019-02-06T11:42:50.041Z,993.792
2019-02-06T11:44:50.215Z,993.792
2019-02-06T11:46:50.375Z,993.796
2019-02-06T11:48:50.520Z,993.760
2019-02-06T11:50:49.692Z,993.727
2019-02-06T11:52:49.883Z,993.727
2019-02-06T11:54:50.027Z,993.724
2019-02-06T11:56:50.422Z,993.713
2019-02-06T11:58:50.059Z,993.632
2019-02-06T12:00:50.166Z,993.625
2019-02-06T12:02:50.527Z,993.572
2019-02-06T12:04:50.414Z,993.502
2019-02-06T12:06:49.856Z,993.490
2019-02-06T12:08:49.941Z,993.464
2019-02-06T12:10:50.056Z,993.435
2019-02-06T12:12:50.198Z,993.440
2019-02-06T12:14:50.336Z,993.449
2019-02-06T12:16:49.693Z,993.424
2019-02-06T12:18:49.772Z,993.424
2019-02-06T12:20:49.899Z,993.424
2019-02-06T12:22:50.075Z,993.379
2019-02-06T12:24:50.311Z,993.323
2019-02-06T12:26:50.532Z,993.307
2019-02-06T12:28:49.639Z,993.256
2019-02-06T12:30:49.791Z,993.205
2019-02-06T12:32:52.811Z,993.151
2019-02-06T12:34:50.869Z,993.130
2019-02-06T12:36:50.466Z,993.114
2019-02-06T12:38:54.123Z,993.104
2019-02-06T12:40:50.281Z,993.042
2019-02-06T12:42:50.440Z,992.984
2019-02-06T12:44:49.755Z,992.958
2019-02-06T12:46:50.028Z,992.903
2019-02-06T12:48:50.901Z,992.831
2019-02-06T12:50:50.588Z,992.759
2019-02-06T12:52:49.694Z,992.739
2019-02-06T12:54:49.810Z,992.723
2019-02-06T12:56:49.986Z,992.676
2019-02-06T12:58:50.112Z,992.629
2019-02-06T13:00:50.240Z,992.574
2019-02-06T13:02:50.354Z,992.551
2019-02-06T13:04:49.712Z,992.464
2019-02-06T13:06:50.038Z,992.448
2019-02-06T13:08:50.164Z,992.448
2019-02-06T13:10:50.717Z,992.435
2019-02-06T13:12:50.423Z,992.432
2019-02-06T13:14:50.547Z,992.436
2019-02-06T13:16:49.790Z,992.447
2019-02-06T13:18:50.567Z,992.464
2019-02-06T13:20:51.732Z,992.432
2019-02-06T13:22:50.111Z,992.412
2019-02-06T13:24:50.297Z,992.355
2019-02-06T13:26:51.248Z,992.277
2019-02-06T13:28:49.824Z,992.252
2019-02-06T13:30:49.950Z,992.190
2019-02-06T13:32:50.106Z,992.170
2019-02-06T13:34:50.473Z,992.150
2019-02-06T13:36:49.843Z,992.122
2019-02-06T13:38:49.989Z,992.086
2019-02-06T13:40:50.133Z,992.052
2019-02-06T13:42:50.307Z,992.008
2019-02-06T13:44:49.864Z,991.971
2019-02-06T13:46:53.826Z,991.948
2019-02-06T13:48:50.049Z,991.905
2019-02-06T13:50:50.436Z,991.891
2019-02-06T13:52:50.505Z,991.891
2019-02-06T13:54:49.699Z,991.881
2019-02-06T13:56:50.377Z,991.886
2019-02-06T13:58:49.893Z,991.896
2019-02-06T14:00:52.821Z,991.885
2019-02-06T14:02:50.086Z,991.854
2019-02-06T14:04:51.110Z,991.854
2019-02-06T14:06:50.574Z,991.814
2019-02-06T14:08:49.812Z,991.754
2019-02-06T14:11:01.235Z,991.761
2019-02-06T14:12:50.960Z,991.752
2019-02-06T14:14:49.674Z,991.726
2019-02-06T14:16:49.947Z,991.721
2019-02-06T14:18:50.082Z,991.690
2019-02-06T14:20:50.157Z,991.691
2019-02-06T14:22:50.337Z,991.601
2019-02-06T14:24:50.580Z,991.569
2019-02-06T14:26:49.940Z,991.514
2019-02-06T14:28:50.062Z,991.501
2019-02-06T14:30:49.686Z,991.516
2019-02-06T14:32:50.031Z,991.496
2019-02-06T14:34:50.015Z,991.483
2019-02-06T14:36:50.559Z,991.468
2019-02-06T14:38:49.705Z,991.436
2019-02-06T14:40:49.856Z,991.415
2019-02-06T14:42:50.315Z,991.386
2019-02-06T14:44:52.848Z,991.346
2019-02-06T14:46:50.113Z,991.319
2019-02-06T14:48:50.461Z,991.284
2019-02-06T14:50:50.750Z,991.274
2019-02-06T14:52:50.479Z,991.275
2019-02-06T14:54:49.783Z,991.258
2019-02-06T14:56:50.121Z,991.251
2019-02-06T14:58:49.663Z,991.235
2019-02-06T15:01:02.507Z,991.211
2019-02-06T15:02:49.832Z,991.197
2019-02-06T15:04:50.014Z,991.175
2019-02-06T15:06:50.058Z,991.174
2019-02-06T15:08:50.095Z,991.174
2019-02-06T15:10:50.087Z,991.140
2019-02-06T15:12:50.078Z,991.135
2019-02-06T15:14:50.111Z,991.123
2019-02-06T15:16:50.293Z,991.143
2019-02-06T15:18:50.289Z,991.147
2019-02-06T15:20:50.272Z,991.147
2019-02-06T15:22:50.590Z,991.128
2019-02-06T15:24:49.960Z,991.099
2019-02-06T15:26:50.076Z,991.089
2019-02-06T15:28:50.040Z,991.055
2019-02-06T15:30:50.573Z,991.045
2019-02-06T15:32:50.231Z,991.066
2019-02-06T15:34:50.470Z,991.054
2019-02-06T15:36:50.547Z,991.041
2019-02-06T15:38:51.174Z,991.045
2019-02-06T15:40:50.065Z,991.044
2019-02-06T15:42:49.738Z,991.021
2019-02-06T15:44:49.656Z,990.994
2019-02-06T15:46:51.010Z,990.995
2019-02-06T15:48:50.021Z,990.968
2019-02-06T15:50:49.819Z,990.953
2019-02-06T15:52:49.791Z,990.933
2019-02-06T15:54:49.694Z,990.924
2019-02-06T15:56:50.574Z,990.929
2019-02-06T15:58:50.388Z,990.943
2019-02-06T16:00:50.200Z,990.954
2019-02-06T16:02:49.998Z,990.966
2019-02-06T16:04:49.978Z,990.958
2019-02-06T16:06:49.907Z,990.958
2019-02-06T16:08:49.699Z,990.954
2019-02-06T16:10:50.465Z,990.954
2019-02-06T16:12:49.982Z,990.942
2019-02-06T16:14:49.789Z,990.948
2019-02-06T16:16:50.625Z,990.944
2019-02-06T16:18:50.388Z,990.936
2019-02-06T16:20:50.244Z,990.938
2019-02-06T16:22:50.094Z,990.926
2019-02-06T16:24:49.974Z,990.914
2019-02-06T16:26:49.860Z,990.914
2019-02-06T16:28:50.606Z,990.899
2019-02-06T16:30:50.359Z,990.890
2019-02-06T16:32:50.764Z,990.920
2019-02-06T16:34:50.051Z,990.926
2019-02-06T16:36:49.870Z,990.929
2019-02-06T16:38:49.638Z,990.921
2019-02-06T16:40:50.884Z,990.898
2019-02-06T16:42:49.990Z,990.889
2019-02-06T16:44:49.867Z,990.893
2019-02-06T16:46:49.802Z,990.874
2019-02-06T16:48:51.127Z,990.875
2019-02-06T16:50:50.290Z,990.890
2019-02-06T16:52:50.159Z,990.891
2019-02-06T16:54:49.949Z,990.858
2019-02-06T16:56:50.342Z,990.844
2019-02-06T16:58:50.476Z,990.844
2019-02-06T17:00:50.410Z,990.804
2019-02-06T17:02:50.199Z,990.774
2019-02-06T17:04:51.083Z,990.743
2019-02-06T17:06:50.341Z,990.729
2019-02-06T17:08:50.094Z,990.693
2019-02-06T17:10:49.899Z,990.670
2019-02-06T17:12:50.419Z,990.632
2019-02-06T17:14:50.275Z,990.619
2019-02-06T17:16:50.244Z,990.604
2019-02-06T17:18:50.155Z,990.603
2019-02-06T17:20:49.932Z,990.621
2019-02-06T17:22:49.687Z,990.621
2019-02-06T17:24:50.561Z,990.633
2019-02-06T17:26:49.911Z,990.666
2019-02-06T17:28:49.699Z,990.673
2019-02-06T17:30:50.457Z,990.669
2019-02-06T17:32:50.255Z,990.667
2019-02-06T17:34:50.300Z,990.672
2019-02-06T17:36:50.123Z,990.656
2019-02-06T17:38:50.309Z,990.650
2019-02-06T17:40:50.074Z,990.622
2019-02-06T17:42:49.829Z,990.603
2019-02-06T17:44:49.648Z,990.577
2019-02-06T17:46:49.656Z,990.546
2019-02-06T17:48:50.441Z,990.509
2019-02-06T17:50:50.291Z,990.485
2019-02-06T17:52:50.075Z,990.474
2019-02-06T17:54:49.846Z,990.447
2019-02-06T17:56:49.852Z,990.417
2019-02-06T17:58:49.774Z,990.402
2019-02-06T18:00:50.616Z,990.411
2019-02-06T18:02:50.457Z,990.425
2019-02-06T18:04:50.438Z,990.440
2019-02-06T18:06:50.340Z,990.457
2019-02-06T18:08:57.398Z,990.472
2019-02-06T18:10:50.182Z,990.480
2019-02-06T18:12:49.993Z,990.480
2019-02-06T18:14:50.248Z,990.459
2019-02-06T18:16:50.495Z,990.462
2019-02-06T18:18:50.422Z,990.472
2019-02-06T18:20:50.182Z,990.471
2019-02-06T18:22:50.645Z,990.458
2019-02-06T18:24:49.716Z,990.462
2019-02-06T18:26:49.724Z,990.433
2019-02-06T18:28:50.635Z,990.409
2019-02-06T18:30:50.492Z,990.409
2019-02-06T18:32:50.311Z,990.386
2019-02-06T18:34:50.414Z,990.394
2019-02-06T18:36:50.847Z,990.409
2019-02-06T18:38:50.089Z,990.414
2019-02-06T18:40:49.904Z,990.399
2019-02-06T18:42:49.829Z,990.389
2019-02-06T18:44:50.623Z,990.363
2019-02-06T18:46:50.541Z,990.363
2019-02-06T18:48:50.361Z,990.341
2019-02-06T18:50:50.503Z,990.344
2019-02-06T18:52:50.373Z,990.342
2019-02-06T18:54:50.183Z,990.346
2019-02-06T18:56:50.141Z,990.362
2019-02-06T18:58:49.994Z,990.370
2019-02-06T19:00:49.945Z,990.387
2019-02-06T19:02:49.955Z,990.368
2019-02-06T19:04:50.805Z,990.349
2019-02-06T19:06:50.086Z,990.349
2019-02-06T19:08:50.008Z,990.318
2019-02-06T19:10:49.854Z,990.274
2019-02-06T19:12:51.070Z,990.231
2019-02-06T19:14:49.876Z,990.220
2019-02-06T19:16:49.810Z,990.208
2019-02-06T19:18:50.311Z,990.208
2019-02-06T19:20:50.508Z,990.203
2019-02-06T19:22:50.321Z,990.173
2019-02-06T19:24:50.163Z,990.165
2019-02-06T19:26:50.047Z,990.162
2019-02-06T19:28:49.892Z,990.149
2019-02-06T19:30:49.715Z,990.126
2019-02-06T19:32:50.537Z,990.100
2019-02-06T19:34:49.817Z,990.069
2019-02-06T19:36:49.856Z,990.049
2019-02-06T19:38:49.830Z,990.042
2019-02-06T19:40:51.920Z,990.054
2019-02-06T19:43:02.909Z,990.057
2019-02-06T19:44:49.710Z,990.054
2019-02-06T19:46:50.556Z,990.020
2019-02-06T19:48:50.386Z,989.987
2019-02-06T19:50:50.245Z,989.942
2019-02-06T19:52:50.271Z,989.915
2019-02-06T19:54:50.339Z,989.878
2019-02-06T19:56:50.430Z,989.879
2019-02-06T19:58:50.343Z,989.867
2019-02-06T20:00:50.160Z,989.867
2019-02-06T20:02:50.057Z,989.920
2019-02-06T20:04:50.294Z,989.895
2019-02-06T20:06:50.294Z,989.880
2019-02-06T20:08:50.196Z,989.862
2019-02-06T20:10:50.054Z,989.793
2019-02-06T20:12:49.888Z,989.698
2019-02-06T20:14:49.711Z,989.653
2019-02-06T20:16:51.251Z,989.622
2019-02-06T20:18:50.444Z,989.598
2019-02-06T20:20:50.287Z,989.599
2019-02-06T20:22:50.149Z,989.592
2019-02-06T20:24:50.050Z,989.590
2019-02-06T20:26:50.026Z,989.575
2019-02-06T20:28:49.812Z,989.543
2019-02-06T20:30:50.215Z,989.491
2019-02-06T20:32:50.223Z,989.464
2019-02-06T20:34:50.261Z,989.459
2019-02-06T20:36:50.150Z,989.472
2019-02-06T20:38:52.772Z,989.461
2019-02-06T20:40:49.925Z,989.420
2019-02-06T20:42:49.889Z,989.377
2019-02-06T20:44:49.685Z,989.332
2019-02-06T20:46:49.763Z,989.310
2019-02-06T20:48:50.570Z,989.286
2019-02-06T20:50:51.898Z,989.280
2019-02-06T20:52:50.318Z,989.232
2019-02-06T20:54:50.417Z,989.186
2019-02-06T20:56:50.254Z,989.125
2019-02-06T20:58:50.062Z,989.125
2019-02-06T21:00:49.859Z,989.108
2019-02-06T21:02:49.655Z,989.122
2019-02-06T21:04:49.733Z,989.162
2019-02-06T21:06:49.706Z,989.154
2019-02-06T21:08:50.488Z,989.156
2019-02-06T21:10:50.392Z,989.160
2019-02-06T21:12:50.245Z,989.148
2019-02-06T21:14:50.132Z,989.154
2019-02-06T21:16:50.086Z,989.155
2019-02-06T21:18:49.906Z,989.164
2019-02-06T21:20:52.222Z,989.162
2019-02-06T21:22:50.644Z,989.164
2019-02-06T21:24:49.770Z,989.186
2019-02-06T21:26:49.733Z,989.210
2019-02-06T21:28:50.634Z,989.225
2019-02-06T21:30:50.538Z,989.228
2019-02-06T21:32:49.669Z,989.222
2019-02-06T21:34:49.759Z,989.217
2019-02-06T21:36:49.802Z,989.236
2019-02-06T21:38:50.610Z,989.222
2019-02-06T21:40:50.433Z,989.169
2019-02-06T21:42:50.313Z,989.095
2019-02-06T21:44:50.142Z,989.045
2019-02-06T21:46:50.046Z,989.007
2019-02-06T21:48:49.929Z,988.995
2019-02-06T21:50:49.687Z,989.007
2019-02-06T21:52:49.743Z,989.015
2019-02-06T21:54:50.495Z,989.032
2019-02-06T21:56:50.500Z,989.044
2019-02-06T21:58:50.316Z,989.043
2019-02-06T22:00:50.489Z,989.010
2019-02-06T22:02:50.403Z,988.986
2019-02-06T22:04:50.401Z,988.958
2019-02-06T22:06:50.284Z,988.956
2019-02-06T22:08:50.473Z,988.911
2019-02-06T22:10:50.300Z,988.889
2019-02-06T22:12:50.106Z,988.876
2019-02-06T22:14:49.923Z,988.836
2019-02-06T22:16:50.370Z,988.812
2019-02-06T22:18:50.481Z,988.785
2019-02-06T22:20:50.339Z,988.771
2019-02-06T22:22:50.218Z,988.758
2019-02-06T22:24:50.652Z,988.771
2019-02-06T22:26:50.008Z,988.763
2019-02-06T22:28:49.861Z,988.743
2019-02-06T22:30:49.711Z,988.693
2019-02-06T22:32:50.572Z,988.630
2019-02-06T22:34:49.829Z,988.552
2019-02-06T22:36:49.743Z,988.552
2019-02-06T22:38:50.557Z,988.478
2019-02-06T22:40:50.465Z,988.459
2019-02-06T22:42:50.305Z,988.457
2019-02-06T22:44:50.247Z,988.454
2019-02-06T22:46:50.220Z,988.444
2019-02-06T22:48:50.011Z,988.454
2019-02-06T22:50:50.010Z,988.477
2019-02-06T22:52:49.804Z,988.502
2019-02-06T22:54:50.615Z,988.527
2019-02-06T22:56:50.551Z,988.504
2019-02-06T22:58:50.409Z,988.471
2019-02-06T23:00:50.296Z,988.431
2019-02-06T23:02:50.179Z,988.431
2019-02-06T23:04:50.261Z,988.393
2019-02-06T23:06:50.214Z,988.379
2019-02-06T23:08:50.084Z,988.362
2019-02-06T23:10:50.528Z,988.344
2019-02-06T23:12:49.819Z,988.369
2019-02-06T23:14:49.712Z,988.437
2019-02-06T23:16:50.575Z,988.490
2019-02-06T23:18:52.826Z,988.551
2019-02-06T23:20:50.005Z,988.558
2019-02-06T23:22:49.954Z,988.533
2019-02-06T23:24:49.790Z,988.457
2019-02-06T23:26:50.448Z,988.404
2019-02-06T23:28:50.587Z,988.361
2019-02-06T23:30:50.420Z,988.354
2019-02-06T23:32:50.220Z,988.373
2019-02-06T23:34:50.874Z,988.378
2019-02-06T23:36:50.215Z,988.339
2019-02-06T23:38:50.089Z,988.279
2019-02-06T23:40:50.010Z,988.219
2019-02-06T23:42:49.862Z,988.163
2019-02-06T23:44:49.758Z,988.147
2019-02-06T23:46:49.821Z,988.117
2019-02-06T23:48:49.644Z,988.088
2019-02-06T23:50:50.661Z,988.033
2019-02-06T23:52:50.568Z,988.014
2019-02-06T23:54:50.518Z,988.025
2019-02-06T23:56:49.647Z,988.035
2019-02-06T23:58:50.487Z,988.046
